Time;durP1;ratioP1;P1;durP2;ratioP2;P2;SDS_P1;SDS_P2;PMS_P1;PMS_P2;Temp;Humidity;BMP_temperature;BMP_pressure;BME280_temperature;BME280_humidity;BME280_pressure;Samples;Min_cycle;Max_cycle;Signal;HPM_P1;HPM_P2
2023/01/14 00:01:25;;;;;;;0.10;0.10;;;6.30;99.90;12.80;163505.00;;;;4981358;28;20221;-74
2023/01/14 00:03:54;;;;;;;0.10;0.10;;;6.30;99.90;12.80;163505.00;;;;4964347;28;20201;-74
2023/01/14 00:06:27;;;;;;;0.10;0.10;;;6.30;99.90;12.80;163505.00;;;;4971169;28;20239;-76
2023/01/14 00:08:57;;;;;;;0.10;0.10;;;6.30;99.90;12.80;163505.00;;;;4978827;28;20213;-75
2023/01/14 00:14:07;;;;;;;0.10;0.10;;;6.30;99.90;12.80;163505.00;;;;4976029;28;20201;-77
2023/01/14 00:16:35;;;;;;;0.10;0.10;;;6.40;99.90;12.80;163505.00;;;;4980900;28;20280;-74
2023/01/14 00:19:04;;;;;;;0.10;0.10;;;6.40;99.90;12.80;163505.00;;;;4982552;28;20208;-75
2023/01/14 00:21:34;;;;;;;0.10;0.10;;;6.40;99.90;12.80;163505.00;;;;4969969;28;20702;-74
2023/01/14 00:24:04;;;;;;;0.10;0.10;;;6.40;99.90;12.80;163505.00;;;;4961196;28;20198;-75
2023/01/14 00:26:32;;;;;;;0.10;0.10;;;6.50;99.90;12.80;163505.00;;;;4966958;28;20612;-76
2023/01/14 00:29:01;;;;;;;0.10;0.10;;;6.50;99.90;12.80;163505.00;;;;4976043;28;20193;-73
2023/01/14 00:31:31;;;;;;;0.10;0.10;;;6.50;99.90;12.80;163505.00;;;;4958312;28;20236;-74
2023/01/14 00:34:00;;;;;;;0.10;0.10;;;6.40;99.90;12.80;163505.00;;;;4962713;28;20594;-74
2023/01/14 00:36:29;;;;;;;0.10;0.10;;;6.40;99.90;12.80;163505.00;;;;4977563;28;20737;-74
2023/01/14 00:38:59;;;;;;;0.10;0.10;;;6.40;99.90;12.80;163505.00;;;;4971463;28;20581;-74
2023/01/14 00:41:28;;;;;;;0.10;0.10;;;6.40;99.90;12.80;163505.00;;;;4969029;28;20214;-75
2023/01/14 00:43:59;;;;;;;0.10;0.10;;;6.30;99.90;12.80;163505.00;;;;4958150;28;20205;-75
2023/01/14 00:46:32;;;;;;;0.10;0.10;;;6.30;99.90;12.80;163505.00;;;;4973325;28;20209;-75
2023/01/14 00:49:03;;;;;;;0.10;0.10;;;6.20;99.90;12.80;163505.00;;;;4967938;28;20511;-76
2023/01/14 00:51:33;;;;;;;0.10;0.10;;;6.10;99.90;12.80;163505.00;;;;4958762;28;20233;-78
2023/01/14 00:54:03;;;;;;;0.10;0.10;;;6.10;99.90;12.80;163505.00;;;;4977267;28;20561;-79
2023/01/14 00:56:33;;;;;;;0.10;0.10;;;6.10;99.90;12.80;163505.00;;;;4977564;28;20201;-78
2023/01/14 00:59:01;;;;;;;0.10;0.10;;;6.10;99.90;12.80;163505.00;;;;4977800;28;20201;-79
2023/01/14 01:01:29;;;;;;;0.10;0.10;;;6.10;99.90;12.80;163505.00;;;;4976864;28;20244;-78
2023/01/14 01:03:58;;;;;;;0.10;0.10;;;6.00;99.90;12.80;163505.00;;;;4973051;28;20283;-78
2023/01/14 01:06:27;;;;;;;0.10;0.10;;;6.00;99.90;12.80;163505.00;;;;4977718;28;20208;-79
2023/01/14 01:09:03;;;;;;;0.10;0.10;;;6.00;99.90;12.80;163505.00;;;;4977665;28;20197;-79
2023/01/14 01:11:32;;;;;;;0.10;0.10;;;6.00;99.90;12.80;163505.00;;;;4975716;28;20729;-78
2023/01/14 01:14:00;;;;;;;0.10;0.10;;;5.90;99.90;12.80;163505.00;;;;4978941;28;20240;-78
2023/01/14 01:16:28;;;;;;;0.10;0.10;;;5.90;99.90;12.80;163505.00;;;;4961441;28;20193;-78
2023/01/14 01:18:57;;;;;;;0.10;0.10;;;5.90;99.90;12.80;163505.00;;;;4976606;28;20220;-80
2023/01/14 01:21:28;;;;;;;0.10;0.10;;;5.90;99.90;12.80;163505.00;;;;4958497;28;20308;-79
2023/01/14 01:23:56;;;;;;;0.10;0.10;;;5.80;99.90;12.80;163505.00;;;;4976107;28;20201;-79
2023/01/14 01:26:27;;;;;;;0.10;0.10;;;5.80;99.90;12.80;163505.00;;;;4977623;28;20553;-79
2023/01/14 01:28:58;;;;;;;0.10;0.10;;;5.80;99.90;12.80;163505.00;;;;4977638;28;20200;-79
2023/01/14 01:31:28;;;;;;;0.10;0.10;;;5.80;99.90;12.80;163505.00;;;;4969618;28;20632;-77
2023/01/14 01:33:56;;;;;;;0.10;0.10;;;5.80;99.90;12.80;163505.00;;;;4966329;28;20479;-78
2023/01/14 01:36:28;;;;;;;0.05;0.05;;;5.80;99.90;12.80;163505.00;;;;4967044;28;20289;-76
2023/01/14 01:38:56;;;;;;;0.00;0.00;;;5.80;99.90;12.80;163505.00;;;;4956561;28;20228;-76
2023/01/14 01:41:30;;;;;;;0.10;0.10;;;5.90;99.90;12.80;163505.00;;;;4979026;28;20226;-79
2023/01/14 01:44:02;;;;;;;0.10;0.10;;;5.90;99.90;12.80;163505.00;;;;4978728;28;20197;-78
2023/01/14 01:46:32;;;;;;;0.10;0.10;;;5.90;99.90;12.80;163505.00;;;;4971769;28;20201;-79
2023/01/14 01:49:08;;;;;;;0.10;0.10;;;5.90;99.90;12.80;163505.00;;;;4960228;28;20197;-78
2023/01/14 01:51:44;;;;;;;0.10;0.10;;;5.90;99.90;12.80;163505.00;;;;4978061;28;20256;-77
2023/01/14 01:54:13;;;;;;;0.10;0.10;;;5.90;99.90;12.80;163505.00;;;;4988963;28;20193;-75
2023/01/14 01:56:46;;;;;;;0.10;0.10;;;5.90;99.90;12.80;163505.00;;;;4980137;28;20307;-74
2023/01/14 01:59:20;;;;;;;0.10;0.10;;;5.90;99.90;12.80;163505.00;;;;4996044;28;20197;-74
2023/01/14 02:01:50;;;;;;;0.10;0.10;;;5.90;99.90;12.80;163505.00;;;;4994365;28;20287;-74
2023/01/14 02:04:18;;;;;;;0.10;0.10;;;6.00;99.90;12.80;163505.00;;;;4993818;28;20661;-77
2023/01/14 02:06:46;;;;;;;0.10;0.10;;;6.00;99.90;12.80;163505.00;;;;4980609;28;20209;-77
2023/01/14 02:09:17;;;;;;;0.10;0.10;;;6.00;99.90;12.80;163505.00;;;;4987048;28;20189;-76
2023/01/14 02:12:12;;;;;;;0.08;0.08;;;6.00;99.90;12.80;163505.00;;;;4964745;28;20714;-77
2023/01/14 02:15:04;;;;;;;0.10;0.10;;;6.10;99.90;12.80;163505.00;;;;4938482;28;20231;-77
2023/01/14 02:17:51;;;;;;;0.10;0.10;;;6.10;99.90;12.80;163505.00;;;;4975692;28;20236;-77
2023/01/14 02:20:29;;;;;;;0.10;0.10;;;6.10;99.90;12.80;163505.00;;;;4954513;28;20193;-76
2023/01/14 02:24:00;;;;;;;0.10;0.10;;;6.10;99.90;12.80;163505.00;;;;4946250;28;20675;-77
2023/01/14 02:26:57;;;;;;;0.10;0.10;;;6.20;99.90;12.80;163505.00;;;;4973805;28;20207;-78
2023/01/14 02:29:59;;;;;;;0.10;0.10;;;6.20;99.90;12.80;163505.00;;;;4969497;28;20197;-77
2023/01/14 02:32:41;;;;;;;0.10;0.10;;;6.20;99.90;12.80;163505.00;;;;4955863;28;20229;-77
2023/01/14 02:35:32;;;;;;;0.00;0.00;;;6.30;99.90;12.80;163505.00;;;;4953401;29;20201;-76
2023/01/14 02:38:19;;;;;;;0.10;0.10;;;6.20;99.90;12.80;163505.00;;;;4955341;28;20216;-77
2023/01/14 02:40:54;;;;;;;0.10;0.10;;;6.20;99.90;12.80;163505.00;;;;4959023;28;20331;-77
2023/01/14 02:46:33;;;;;;;0.10;0.10;;;6.30;99.90;12.80;163505.00;;;;4955453;28;20604;-76
2023/01/14 02:49:13;;;;;;;0.10;0.10;;;6.20;99.90;12.80;163505.00;;;;4955451;28;20193;-76
2023/01/14 02:51:45;;;;;;;0.10;0.10;;;6.20;99.90;12.80;163505.00;;;;4954142;28;20233;-76
2023/01/14 02:54:16;;;;;;;0.10;0.10;;;6.30;99.90;12.80;163505.00;;;;4958216;28;20224;-75
2023/01/14 02:56:46;;;;;;;0.10;0.10;;;6.20;99.90;12.80;163505.00;;;;4975171;28;20295;-76
2023/01/14 02:59:37;;;;;;;0.10;0.10;;;6.30;99.90;12.80;163505.00;;;;4972382;28;20201;-76
2023/01/14 03:02:35;;;;;;;0.00;0.00;;;6.30;99.90;12.80;163505.00;;;;4958947;28;20670;-77
2023/01/14 03:05:35;;;;;;;0.10;0.10;;;6.30;99.90;12.80;163505.00;;;;4957592;29;20674;-77
2023/01/14 03:08:18;;;;;;;0.10;0.10;;;6.30;99.90;12.80;163505.00;;;;4974329;28;20644;-77
2023/01/14 03:10:55;;;;;;;0.10;0.10;;;6.30;99.90;12.80;163505.00;;;;4958212;28;20208;-76
2023/01/14 03:13:33;;;;;;;0.10;0.10;;;6.30;99.90;12.80;163505.00;;;;4973927;28;20288;-76
2023/01/14 03:16:11;;;;;;;0.10;0.10;;;6.30;99.90;12.80;163505.00;;;;4958526;28;20681;-76
2023/01/14 03:18:48;;;;;;;0.10;0.10;;;6.30;99.90;12.80;163505.00;;;;4974533;28;20204;-75
2023/01/14 03:21:21;;;;;;;0.10;0.10;;;6.30;99.90;12.80;163505.00;;;;4974802;28;20220;-76
2023/01/14 03:23:55;;;;;;;0.10;0.10;;;6.30;99.90;12.80;163505.00;;;;4974102;28;20205;-75
2023/01/14 03:26:28;;;;;;;0.10;0.10;;;6.30;99.90;12.80;163505.00;;;;4957777;28;20213;-75
2023/01/14 03:29:00;;;;;;;0.10;0.10;;;6.30;99.90;12.80;163505.00;;;;4972384;28;20205;-76
2023/01/14 03:31:35;;;;;;;0.00;0.00;;;6.30;99.90;12.80;163505.00;;;;4954758;28;20221;-76
2023/01/14 03:34:11;;;;;;;0.10;0.10;;;6.30;99.90;12.80;163505.00;;;;4972602;28;20232;-75
2023/01/14 03:36:47;;;;;;;0.10;0.10;;;6.30;99.90;12.80;163505.00;;;;4956104;28;20587;-75
2023/01/14 03:39:20;;;;;;;0.10;0.10;;;6.20;99.90;12.80;163505.00;;;;4972807;28;20212;-75
2023/01/14 03:44:53;;;;;;;0.10;0.10;;;6.20;99.90;12.80;163505.00;;;;4981728;28;20239;-74
2023/01/14 03:47:22;;;;;;;0.10;0.10;;;6.20;99.90;12.80;163505.00;;;;4977326;28;20193;-74
2023/01/14 03:49:52;;;;;;;0.10;0.10;;;6.20;99.90;12.80;163505.00;;;;4964109;28;20576;-74
2023/01/14 03:52:38;;;;;;;0.10;0.10;;;6.20;99.90;12.80;163505.00;;;;4970764;28;20229;-75
2023/01/14 03:55:17;;;;;;;0.10;0.10;;;6.20;99.90;12.80;163505.00;;;;4974048;28;20209;-75
2023/01/14 03:57:56;;;;;;;0.10;0.10;;;6.20;99.90;12.80;163505.00;;;;4974663;28;20209;-75
2023/01/14 04:00:32;;;;;;;0.10;0.10;;;6.20;99.90;12.80;163505.00;;;;4972223;28;20737;-76
2023/01/14 04:03:04;;;;;;;0.10;0.10;;;6.30;99.90;12.80;163505.00;;;;4974036;28;20260;-76
2023/01/14 04:05:33;;;;;;;0.10;0.10;;;6.20;99.90;12.80;163505.00;;;;4970616;28;20197;-76
2023/01/14 04:08:02;;;;;;;0.00;0.00;;;6.20;99.90;12.80;163505.00;;;;4970359;28;20201;-75
2023/01/14 04:10:30;;;;;;;0.10;0.10;;;6.10;99.90;12.80;163505.00;;;;4972616;28;20193;-75
2023/01/14 04:15:44;;;;;;;0.08;0.08;;;6.10;99.90;12.80;163505.00;;;;4974397;28;20204;-76
2023/01/14 04:18:12;;;;;;;0.10;0.10;;;6.10;99.90;12.80;163505.00;;;;4974567;28;20251;-76
2023/01/14 04:20:41;;;;;;;0.10;0.10;;;6.10;99.90;12.80;163505.00;;;;4973854;28;20205;-76
2023/01/14 04:23:09;;;;;;;0.10;0.10;;;6.10;99.90;12.80;163505.00;;;;4970587;28;20244;-76
2023/01/14 04:25:37;;;;;;;0.10;0.10;;;6.10;99.90;12.80;163505.00;;;;4974547;28;20209;-76
2023/01/14 04:28:05;;;;;;;0.10;0.10;;;6.00;99.90;12.80;163505.00;;;;4967009;28;20308;-76
2023/01/14 04:30:33;;;;;;;0.10;0.10;;;6.00;99.90;12.80;163505.00;;;;4969286;28;20272;-76
2023/01/14 04:33:01;;;;;;;0.10;0.10;;;6.00;99.90;12.80;163505.00;;;;4973484;28;20237;-76
2023/01/14 04:35:29;;;;;;;0.10;0.10;;;6.00;99.90;12.80;163505.00;;;;4974436;28;20236;-76
2023/01/14 04:37:59;;;;;;;0.10;0.10;;;6.00;99.90;12.80;163505.00;;;;4972984;28;20345;-76
2023/01/14 04:40:26;;;;;;;0.10;0.10;;;6.00;99.90;12.80;163505.00;;;;4976286;28;20193;-76
2023/01/14 04:42:53;;;;;;;0.10;0.10;;;6.00;99.90;12.80;163505.00;;;;4968262;28;20311;-75
2023/01/14 04:45:21;;;;;;;0.00;0.00;;;6.00;99.90;12.80;163505.00;;;;4968066;28;20676;-76
2023/01/14 04:47:51;;;;;;;0.10;0.10;;;6.00;99.90;12.80;163505.00;;;;4965721;28;20205;-76
2023/01/14 04:50:32;;;;;;;0.10;0.10;;;6.00;99.90;12.80;163505.00;;;;4974587;28;20204;-76
2023/01/14 04:53:07;;;;;;;0.10;0.10;;;6.00;99.90;12.80;163505.00;;;;4970924;28;20228;-76
2023/01/14 04:55:38;;;;;;;0.10;0.10;;;6.00;99.90;12.80;163505.00;;;;4974177;28;20197;-76
2023/01/14 04:58:08;;;;;;;0.10;0.10;;;6.00;99.90;12.80;163505.00;;;;4967082;28;20239;-75
2023/01/14 05:00:37;;;;;;;0.10;0.10;;;6.00;99.90;12.80;163505.00;;;;4973284;28;20197;-75
2023/01/14 05:03:07;;;;;;;0.10;0.10;;;6.00;99.90;12.80;163505.00;;;;4973518;28;20217;-75
2023/01/14 05:05:37;;;;;;;0.10;0.10;;;6.00;99.90;12.80;163505.00;;;;4973573;28;20197;-75
2023/01/14 05:08:09;;;;;;;0.10;0.10;;;6.00;99.90;12.80;163505.00;;;;4965178;28;20293;-76
2023/01/14 05:10:38;;;;;;;0.10;0.10;;;6.00;99.90;12.80;163505.00;;;;4973188;28;20216;-75
2023/01/14 05:13:07;;;;;;;0.10;0.10;;;6.00;99.90;12.80;163505.00;;;;4972193;28;20221;-76
2023/01/14 05:15:38;;;;;;;0.10;0.10;;;5.90;99.90;12.80;163505.00;;;;4971311;28;20628;-76
2023/01/14 05:18:09;;;;;;;0.10;0.10;;;5.90;99.90;12.80;163505.00;;;;4973626;28;20679;-77
2023/01/14 05:20:38;;;;;;;0.10;0.10;;;5.90;99.90;12.80;163505.00;;;;4969999;28;20197;-75
2023/01/14 05:23:13;;;;;;;0.10;0.10;;;5.80;99.90;12.80;163505.00;;;;4971025;28;20244;-75
2023/01/14 05:25:42;;;;;;;0.10;0.10;;;5.80;99.90;12.80;163505.00;;;;4951459;28;20201;-76
2023/01/14 05:28:14;;;;;;;0.10;0.10;;;5.80;99.90;12.80;163505.00;;;;4975579;28;20251;-76
2023/01/14 05:30:42;;;;;;;0.10;0.10;;;5.80;99.90;12.80;163505.00;;;;4968521;28;20196;-76
2023/01/14 05:33:10;;;;;;;0.10;0.10;;;5.70;99.90;12.80;163505.00;;;;4972491;28;20273;-76
2023/01/14 05:35:39;;;;;;;0.10;0.10;;;5.70;99.90;12.80;163505.00;;;;4984581;28;20577;-76
2023/01/14 05:38:08;;;;;;;0.10;0.10;;;5.70;99.90;12.80;163505.00;;;;4972778;28;20204;-76
2023/01/14 05:40:37;;;;;;;0.10;0.10;;;5.70;99.90;12.80;163505.00;;;;4964287;28;20634;-75
2023/01/14 05:45:51;;;;;;;0.10;0.10;;;5.60;99.90;12.80;163505.00;;;;4969205;28;20189;-75
2023/01/14 05:48:22;;;;;;;0.10;0.10;;;5.60;99.90;12.80;163505.00;;;;4972673;28;20201;-75
2023/01/14 05:50:51;;;;;;;0.10;0.10;;;5.60;99.90;12.80;163505.00;;;;4972957;28;20201;-75
2023/01/14 05:53:22;;;;;;;0.10;0.10;;;5.60;99.90;12.80;163505.00;;;;4971727;28;20252;-74
2023/01/14 05:55:52;;;;;;;0.10;0.10;;;5.60;99.90;12.80;163505.00;;;;4972620;28;20285;-75
2023/01/14 05:58:21;;;;;;;0.10;0.10;;;5.60;99.90;12.80;163505.00;;;;4971894;28;20737;-75
2023/01/14 06:06:26;;;;;;;0.10;0.10;;;5.70;99.90;12.80;163505.00;;;;4966751;28;20193;-75
2023/01/14 06:08:57;;;;;;;0.10;0.10;;;5.70;99.90;12.80;163505.00;;;;4972401;28;20545;-75
2023/01/14 06:11:28;;;;;;;0.10;0.10;;;5.70;99.90;12.80;163505.00;;;;4969346;28;20629;-75
2023/01/14 06:13:58;;;;;;;0.10;0.10;;;5.80;99.90;12.80;163505.00;;;;4972019;28;20275;-74
2023/01/14 06:16:28;;;;;;;0.10;0.10;;;5.80;99.90;12.80;163505.00;;;;4971112;28;20208;-74
2023/01/14 06:18:57;;;;;;;0.10;0.10;;;5.80;99.90;12.80;163505.00;;;;4969112;28;20564;-74
2023/01/14 06:21:30;;;;;;;0.10;0.10;;;5.90;99.90;12.80;163505.00;;;;4961069;28;20295;-74
2023/01/14 06:24:00;;;;;;;0.10;0.10;;;5.90;99.90;12.80;163505.00;;;;4963792;28;20302;-74
2023/01/14 06:26:28;;;;;;;0.10;0.10;;;5.90;99.90;12.80;163505.00;;;;4961616;28;20577;-73
2023/01/14 06:29:02;;;;;;;0.10;0.10;;;5.90;99.90;12.80;163505.00;;;;4971528;28;20668;-73
2023/01/14 06:31:31;;;;;;;0.10;0.10;;;5.90;99.90;12.80;163505.00;;;;4969706;28;20624;-74
2023/01/14 06:34:01;;;;;;;0.10;0.10;;;5.80;99.90;12.80;163505.00;;;;4971335;28;20252;-74
2023/01/14 06:36:31;;;;;;;0.10;0.10;;;5.80;99.90;12.80;163505.00;;;;4972121;28;20200;-75
2023/01/14 06:39:01;;;;;;;0.10;0.10;;;5.80;99.90;12.80;163505.00;;;;4972195;28;20212;-76
2023/01/14 06:41:29;;;;;;;0.08;0.08;;;5.80;99.90;12.80;163505.00;;;;4960420;28;20221;-75
2023/01/14 06:43:57;;;;;;;0.10;0.10;;;5.70;99.90;12.80;163505.00;;;;4961883;28;20197;-75
2023/01/14 06:46:25;;;;;;;0.10;0.10;;;5.70;99.90;12.80;163505.00;;;;4971801;28;20205;-75
2023/01/14 06:48:53;;;;;;;0.10;0.10;;;5.70;99.90;12.80;163505.00;;;;4972171;28;20201;-76
2023/01/14 06:51:21;;;;;;;0.10;0.10;;;5.70;99.90;12.80;163505.00;;;;4971388;28;20283;-76
2023/01/14 06:53:49;;;;;;;0.10;0.10;;;5.60;99.90;12.80;163505.00;;;;4971163;28;20201;-76
2023/01/14 06:56:19;;;;;;;0.00;0.00;;;5.60;99.90;12.80;163505.00;;;;4970751;28;20538;-75
2023/01/14 06:58:48;;;;;;;0.10;0.10;;;5.60;99.90;12.80;163505.00;;;;4970991;28;20565;-75
2023/01/14 07:01:17;;;;;;;0.10;0.10;;;5.60;99.90;12.80;163505.00;;;;4971459;28;20205;-75
2023/01/14 07:03:45;;;;;;;0.10;0.10;;;5.50;99.90;12.80;163505.00;;;;4966851;28;20205;-74
2023/01/14 07:06:13;;;;;;;0.10;0.10;;;5.50;99.90;12.80;163505.00;;;;4957897;28;20215;-76
2023/01/14 07:08:41;;;;;;;0.10;0.10;;;5.50;99.90;12.80;163505.00;;;;4970614;28;20201;-72
2023/01/14 07:11:11;;;;;;;0.10;0.10;;;5.50;99.90;12.80;163505.00;;;;4974658;28;20212;-74
2023/01/14 07:13:41;;;;;;;0.10;0.10;;;5.50;99.90;12.80;163505.00;;;;4971099;28;20205;-73
2023/01/14 07:16:09;;;;;;;0.00;0.00;;;5.50;99.90;12.80;163505.00;;;;4971202;28;20221;-74
2023/01/14 07:18:37;;;;;;;0.10;0.10;;;5.50;99.90;12.80;163505.00;;;;4979051;28;20193;-75
2023/01/14 07:21:05;;;;;;;0.10;0.10;;;5.50;99.90;12.80;163505.00;;;;4969279;28;20247;-73
2023/01/14 07:23:33;;;;;;;0.10;0.10;;;5.50;99.90;12.80;163505.00;;;;4971531;28;20209;-74
2023/01/14 07:26:01;;;;;;;0.03;0.03;;;5.50;99.90;12.80;163505.00;;;;4973630;28;20234;-73
2023/01/14 07:28:31;;;;;;;0.10;0.10;;;5.50;99.90;12.80;163505.00;;;;4960388;28;20632;-71
2023/01/14 07:31:05;;;;;;;0.10;0.10;;;5.50;99.90;12.80;163505.00;;;;4965479;28;20201;-72
2023/01/14 07:33:34;;;;;;;0.08;0.08;;;5.50;99.90;12.80;163505.00;;;;4964846;28;20215;-74
2023/01/14 07:36:02;;;;;;;0.10;0.10;;;5.50;99.90;12.80;163505.00;;;;4969779;28;20266;-71
2023/01/14 07:38:30;;;;;;;0.00;0.00;;;5.50;99.90;12.80;163505.00;;;;4974328;28;20745;-75
2023/01/14 07:40:59;;;;;;;0.10;0.10;;;5.40;99.90;12.80;163505.00;;;;4976283;28;20224;-74
2023/01/14 07:43:27;;;;;;;0.10;0.10;;;5.40;99.90;12.80;163505.00;;;;4971933;28;20545;-75
2023/01/14 07:45:59;;;;;;;0.10;0.10;;;5.40;99.90;12.80;163505.00;;;;4961293;28;20268;-77
2023/01/14 07:48:31;;;;;;;0.10;0.10;;;5.40;99.90;12.80;163505.00;;;;4970611;28;20224;-75
2023/01/14 07:50:59;;;;;;;0.10;0.10;;;5.40;99.90;12.80;163505.00;;;;4975008;28;20545;-75
2023/01/14 07:53:27;;;;;;;0.10;0.10;;;5.50;99.90;12.80;163505.00;;;;4972932;28;20256;-76
2023/01/14 07:55:55;;;;;;;0.00;0.00;;;5.50;99.90;12.80;163505.00;;;;4975012;28;20276;-75
2023/01/14 07:58:23;;;;;;;0.10;0.10;;;5.50;99.90;12.80;163505.00;;;;4970631;28;20193;-75
2023/01/14 08:00:51;;;;;;;0.10;0.10;;;5.50;99.90;12.80;163505.00;;;;4973055;28;20573;-76
2023/01/14 08:03:19;;;;;;;0.10;0.10;;;5.50;99.90;12.80;163505.00;;;;4968209;28;20217;-75
2023/01/14 08:05:49;;;;;;;0.00;0.00;;;5.50;99.90;12.80;163505.00;;;;4974084;28;20220;-74
2023/01/14 08:08:17;;;;;;;0.10;0.10;;;5.50;99.90;12.80;163505.00;;;;4974082;28;20252;-74
2023/01/14 08:10:45;;;;;;;0.10;0.10;;;5.50;99.90;12.80;163505.00;;;;4973625;28;20288;-74
2023/01/14 08:13:14;;;;;;;0.10;0.10;;;5.60;99.90;12.80;163505.00;;;;4971254;28;20225;-75
2023/01/14 08:15:42;;;;;;;0.10;0.10;;;5.60;99.90;12.80;163505.00;;;;4974097;28;20225;-75
2023/01/14 08:18:10;;;;;;;0.10;0.10;;;5.60;99.90;12.80;163505.00;;;;4979032;28;20197;-75
2023/01/14 08:20:38;;;;;;;0.03;0.03;;;5.70;99.90;12.80;163505.00;;;;4974227;28;20209;-75
2023/01/14 08:23:07;;;;;;;0.10;0.10;;;5.70;99.90;12.80;163505.00;;;;4973453;28;20217;-75
2023/01/14 08:25:35;;;;;;;0.10;0.10;;;5.80;99.90;12.80;163505.00;;;;4974451;28;20201;-75
2023/01/14 08:28:05;;;;;;;0.10;0.10;;;5.80;99.90;12.80;163505.00;;;;4972983;28;20216;-75
2023/01/14 08:30:33;;;;;;;0.10;0.10;;;5.90;99.90;12.80;163505.00;;;;4971697;28;20213;-75
2023/01/14 08:33:01;;;;;;;0.10;0.10;;;5.90;99.90;12.80;163505.00;;;;4972959;28;20212;-75
2023/01/14 08:35:29;;;;;;;0.10;0.10;;;5.90;99.90;12.80;163505.00;;;;4966297;28;20702;-75
2023/01/14 08:37:57;;;;;;;0.10;0.10;;;6.00;99.90;12.80;163505.00;;;;4979537;28;20205;-76
2023/01/14 08:40:26;;;;;;;0.10;0.10;;;6.00;99.90;12.80;163505.00;;;;4978644;28;20221;-75
2023/01/14 08:42:55;;;;;;;0.10;0.10;;;6.00;99.90;12.80;163505.00;;;;4982196;28;20276;-75
2023/01/14 08:45:23;;;;;;;0.10;0.10;;;6.00;99.90;12.80;163505.00;;;;4981097;28;20209;-76
2023/01/14 08:47:51;;;;;;;0.10;0.10;;;6.00;99.90;12.80;163505.00;;;;4982621;28;20207;-76
2023/01/14 08:50:20;;;;;;;0.10;0.10;;;6.00;99.90;12.80;163505.00;;;;4982313;28;20208;-76
2023/01/14 08:52:48;;;;;;;0.10;0.10;;;6.00;99.90;12.80;163505.00;;;;4974460;28;20252;-76
2023/01/14 08:55:16;;;;;;;0.10;0.10;;;6.00;99.90;12.80;163505.00;;;;4962523;29;20217;-77
2023/01/14 08:57:45;;;;;;;0.10;0.10;;;6.10;99.90;12.80;163505.00;;;;4979975;28;20201;-76
2023/01/14 09:00:15;;;;;;;0.10;0.10;;;6.10;99.90;12.80;163505.00;;;;4975853;28;20213;-75
2023/01/14 09:02:43;;;;;;;0.10;0.10;;;6.10;99.90;12.80;163505.00;;;;4967526;28;20232;-76
2023/01/14 09:05:13;;;;;;;0.10;0.10;;;6.20;99.90;12.80;163505.00;;;;4973858;28;20748;-76
2023/01/14 09:18:44;;;;;;;0.10;0.10;;;6.40;99.90;12.80;163505.00;;;;4976130;28;20216;-76
2023/01/14 09:21:12;;;;;;;0.10;0.10;;;6.40;99.90;12.80;163505.00;;;;4972422;28;20205;-76
2023/01/14 09:23:41;;;;;;;0.10;0.10;;;6.40;99.90;12.80;163505.00;;;;4973000;28;20619;-76
2023/01/14 09:26:09;;;;;;;0.10;0.10;;;6.40;99.90;12.80;163505.00;;;;4973371;28;20212;-76
2023/01/14 09:28:38;;;;;;;0.10;0.10;;;6.50;99.90;12.80;163505.00;;;;4974068;28;20682;-75
2023/01/14 09:31:06;;;;;;;0.10;0.10;;;6.50;99.90;12.80;163505.00;;;;4970567;28;20197;-76
2023/01/14 09:33:34;;;;;;;0.10;0.10;;;6.50;99.90;12.80;163505.00;;;;4973016;28;20253;-76
2023/01/14 09:36:02;;;;;;;0.10;0.10;;;6.50;99.90;12.80;163505.00;;;;4966811;28;20228;-76
2023/01/14 09:38:30;;;;;;;0.10;0.10;;;6.60;99.90;12.80;163505.00;;;;4972880;28;20616;-76
2023/01/14 09:40:58;;;;;;;0.10;0.10;;;6.70;99.90;12.80;163505.00;;;;4971815;28;20232;-76
2023/01/14 09:43:41;;;;;;;0.10;0.10;;;6.70;99.90;12.80;163505.00;;;;4972692;28;20744;-76
2023/01/14 09:46:11;;;;;;;0.10;0.10;;;6.80;99.90;12.80;163505.00;;;;4973167;28;20209;-76
2023/01/14 09:48:40;;;;;;;0.10;0.10;;;6.80;99.90;12.80;163505.00;;;;4971625;28;20628;-76
2023/01/14 09:51:31;;;;;;;0.10;0.10;;;6.80;99.90;12.80;163505.00;;;;4972420;28;20197;-76
2023/01/14 09:54:08;;;;;;;0.10;0.10;;;6.80;99.90;12.80;163505.00;;;;4972329;28;20733;-76
2023/01/14 09:56:44;;;;;;;0.10;0.10;;;6.70;99.90;12.80;163505.00;;;;4963917;28;20225;-76
2023/01/14 09:59:26;;;;;;;0.10;0.10;;;6.80;99.90;12.80;163505.00;;;;4971960;28;20280;-76
2023/01/14 10:02:02;;;;;;;0.10;0.10;;;6.80;99.90;12.80;163505.00;;;;4966387;28;20213;-76
2023/01/14 10:04:49;;;;;;;0.10;0.10;;;6.80;99.90;12.80;163505.00;;;;4972269;28;20216;-76
2023/01/14 10:07:21;;;;;;;0.00;0.00;;;6.80;99.90;12.80;163505.00;;;;4968325;28;20243;-76
2023/01/14 10:09:53;;;;;;;0.10;0.10;;;6.80;99.90;12.80;163505.00;;;;4971965;28;20263;-76
2023/01/14 10:12:27;;;;;;;0.05;0.05;;;6.80;99.90;12.80;163505.00;;;;4970112;28;20224;-76
2023/01/14 10:15:07;;;;;;;0.10;0.10;;;6.80;99.90;12.80;163505.00;;;;4973087;28;20209;-76
2023/01/14 10:17:42;;;;;;;0.10;0.10;;;6.90;99.90;12.80;163505.00;;;;4970415;28;20709;-76
2023/01/14 10:20:19;;;;;;;0.10;0.10;;;7.00;99.90;12.80;163505.00;;;;4970938;28;20224;-76
2023/01/14 10:22:57;;;;;;;0.10;0.10;;;7.00;99.90;12.80;163505.00;;;;4970218;28;20358;-76
2023/01/14 10:25:25;;;;;;;0.10;0.10;;;7.00;99.90;12.80;163505.00;;;;4966433;28;20211;-76
2023/01/14 10:27:56;;;;;;;0.10;0.10;;;7.00;99.90;12.80;163505.00;;;;4971585;28;20205;-76
2023/01/14 10:30:32;;;;;;;0.10;0.10;;;7.10;99.90;12.80;163505.00;;;;4969940;28;20205;-76
2023/01/14 10:33:05;;;;;;;0.10;0.10;;;7.20;99.90;12.80;163505.00;;;;4971248;28;20224;-73
2023/01/14 10:35:36;;;;;;;0.10;0.10;;;7.30;99.90;12.80;163505.00;;;;4972171;28;20204;-77
2023/01/14 10:38:06;;;;;;;0.10;0.10;;;7.30;99.90;12.80;163505.00;;;;4971011;28;20300;-77
2023/01/14 10:40:35;;;;;;;0.10;0.10;;;7.30;99.90;12.80;163505.00;;;;4965791;28;20232;-76
2023/01/14 10:43:04;;;;;;;0.10;0.10;;;7.30;99.90;12.80;163505.00;;;;4973333;28;20217;-77
2023/01/14 10:45:34;;;;;;;0.10;0.10;;;7.30;99.90;12.80;163505.00;;;;4971606;28;20260;-77
2023/01/14 10:48:04;;;;;;;0.08;0.08;;;7.40;99.90;12.80;163505.00;;;;4970688;28;20201;-77
2023/01/14 10:50:33;;;;;;;0.10;0.10;;;7.40;99.90;12.80;163505.00;;;;4971258;28;20283;-76
2023/01/14 10:53:19;;;;;;;0.10;0.10;;;7.40;99.90;12.80;163505.00;;;;4972515;28;20236;-77
2023/01/14 10:55:55;;;;;;;0.10;0.10;;;7.40;99.90;12.80;163505.00;;;;4971791;28;20200;-77
2023/01/14 10:58:30;;;;;;;0.10;0.10;;;7.50;99.90;12.80;163505.00;;;;4971680;28;20196;-77
2023/01/14 11:01:06;;;;;;;0.10;0.10;;;7.60;99.90;12.80;163505.00;;;;4968871;28;20207;-76
2023/01/14 11:03:40;;;;;;;0.08;0.08;;;7.60;99.90;12.80;163505.00;;;;4965846;28;20197;-75
2023/01/14 11:06:13;;;;;;;0.10;0.10;;;7.70;99.90;12.80;163505.00;;;;4958560;28;20205;-76
2023/01/14 11:08:49;;;;;;;0.10;0.10;;;7.70;99.90;12.80;163505.00;;;;4969806;28;20202;-77
2023/01/14 11:11:22;;;;;;;0.10;0.10;;;7.70;99.90;12.80;163505.00;;;;4959241;28;20263;-77
2023/01/14 11:13:53;;;;;;;0.10;0.10;;;7.70;99.90;12.80;163505.00;;;;4973786;28;20196;-76
2023/01/14 11:16:33;;;;;;;0.10;0.10;;;7.70;99.90;12.80;163505.00;;;;4969623;28;20217;-77
2023/01/14 11:19:05;;;;;;;0.10;0.10;;;7.70;99.90;12.80;163505.00;;;;4975007;28;20611;-77
2023/01/14 11:21:37;;;;;;;0.00;0.00;;;7.60;99.90;12.80;163505.00;;;;4973856;28;20224;-77
2023/01/14 11:24:17;;;;;;;0.10;0.10;;;7.70;99.90;12.80;163505.00;;;;4975191;28;20209;-77
2023/01/14 11:26:45;;;;;;;0.10;0.10;;;7.70;99.90;12.80;163505.00;;;;4974993;28;20507;-76
2023/01/14 11:29:22;;;;;;;0.10;0.10;;;7.70;99.90;12.80;163505.00;;;;4974235;28;20197;-77
2023/01/14 11:31:56;;;;;;;0.10;0.10;;;7.70;99.90;12.80;163505.00;;;;4974932;28;20776;-77
2023/01/14 11:34:33;;;;;;;0.10;0.10;;;7.70;99.90;12.80;163505.00;;;;4976420;28;20197;-77
2023/01/14 11:37:15;;;;;;;0.10;0.10;;;7.70;99.90;12.80;163505.00;;;;4969633;28;20221;-77
2023/01/14 11:39:50;;;;;;;0.10;0.10;;;7.70;99.90;12.80;163505.00;;;;4975833;28;20255;-76
2023/01/14 11:42:33;;;;;;;0.03;0.03;;;7.70;99.90;12.80;163505.00;;;;4974996;28;20620;-77
2023/01/14 11:45:15;;;;;;;0.10;0.10;;;7.70;99.90;12.80;163505.00;;;;4978819;28;20201;-77
2023/01/14 11:47:49;;;;;;;0.00;0.00;;;7.70;99.90;12.80;163505.00;;;;4976550;28;20212;-77